aviador You're here:

KAIA Decoded Metar

ALLIANCE in NE, USA
Report Time2017-07-21 03:53:00
UTC Time2017-07-21 04:34:58
Flight Rules vfr VFR
WindCalm
Visibility9999 m
Phenomena:N/A
Clouds:N/A
Expected CloudBase > 3,200 ft AGL from Temp-Dew spread
CeilingNone
Temp24°C (ISA +17)
Dew Point16°C (61% RH)
QNH1015 hPa
Density Alt6,043 ft
Elevation3,924 ft
Report Wrong Elevation
Raw Report
METAR KAIA 210353Z AUTO 00000KT 10SM CLR 24/16 A2998 RMK AO2 SLP104
T02440161=

Extra information for KAIA:More info

Metar Taf Metar & Taf Last 4 Metars F.Rules Stats Wind Profile Meteogram Temp Stats Airport Information Weather charts Add Link Nearby VenuesMetar ALERT Operation Metar Decoded Social comments

AIRNAV info for KAIA